Time;durP1;ratioP1;P1;durP2;ratioP2;P2;SDS_P1;SDS_P2;PMS_P1;PMS_P2;Temp;Humidity;BMP_temperature;BMP_pressure;BME280_temperature;BME280_humidity;BME280_pressure;Samples;Min_cycle;Max_cycle;Signal;HPM_P1;HPM_P2
2023/04/16 00:00:15;;;;;;;6.10;5.73;;;;;;;5.88;nan;96690.97;5035536;28;20550;-70
2023/04/16 00:02:43;;;;;;;6.17;5.77;;;;;;;5.88;nan;96696.25;5033643;28;20372;-70
2023/04/16 00:05:13;;;;;;;5.93;5.53;;;;;;;5.88;nan;96699.66;5013571;28;20930;-70
2023/04/16 00:07:41;;;;;;;6.90;6.40;;;;;;;5.88;nan;96699.66;5026375;28;20594;-69
2023/04/16 00:10:15;;;;;;;6.67;6.17;;;;;;;5.80;nan;96684.72;5028895;28;20202;-70
2023/04/16 00:12:46;;;;;;;6.93;6.30;;;;;;;5.75;nan;96683.59;4996414;28;20869;-72
2023/04/16 00:15:15;;;;;;;6.47;6.07;;;;;;;5.82;nan;96691.63;5033945;28;20215;-70
2023/04/16 00:17:43;;;;;;;5.70;5.40;;;;;;;5.85;nan;96696.53;5031142;28;20945;-69
2023/04/16 00:20:12;;;;;;;6.37;5.87;;;;;;;5.85;nan;96693.91;5011188;28;20520;-70
2023/04/16 00:22:40;;;;;;;6.27;5.77;;;;;;;5.86;nan;96698.19;5032156;28;20230;-70
2023/04/16 00:25:08;;;;;;;6.83;6.23;;;;;;;5.88;nan;96689.16;5031588;28;20288;-71
2023/04/16 00:27:35;;;;;;;5.83;5.50;;;;;;;5.88;nan;96690.97;4987306;28;20211;-70
2023/04/16 00:30:03;;;;;;;6.00;5.63;;;;;;;5.85;nan;96691.28;5009514;28;20231;-70
2023/04/16 00:32:31;;;;;;;6.87;6.47;;;;;;;5.77;nan;96695.56;5034012;28;20258;-70
2023/04/16 00:34:59;;;;;;;6.20;5.80;;;;;;;5.63;nan;96689.16;5010257;28;20208;-70
2023/04/16 00:37:28;;;;;;;5.73;5.33;;;;;;;5.68;nan;96687.84;5032365;28;20382;-69
2023/04/16 00:39:55;;;;;;;6.20;5.80;;;;;;;5.73;nan;96693.44;5032059;28;20522;-70
2023/04/16 00:42:24;;;;;;;5.73;5.33;;;;;;;5.64;nan;96680.28;4990927;28;20219;-70
2023/04/16 00:44:52;;;;;;;6.23;5.73;;;;;;;5.74;nan;96693.28;5005852;28;20707;-69
2023/04/16 00:47:20;;;;;;;6.30;5.80;;;;;;;5.74;nan;96695.91;5029161;28;20219;-71
2023/04/16 00:49:48;;;;;;;6.03;5.63;;;;;;;5.78;nan;96699.03;5014024;28;20272;-70
2023/04/16 00:52:16;;;;;;;6.10;5.70;;;;;;;5.76;nan;96701.00;5032122;28;20591;-71
2023/04/16 00:54:45;;;;;;;6.37;5.97;;;;;;;5.69;nan;96703.47;5035854;28;20481;-70
2023/04/16 00:57:14;;;;;;;6.03;5.63;;;;;;;5.58;nan;96695.91;5033151;28;20474;-71
2023/04/16 00:59:42;;;;;;;5.70;5.30;;;;;;;5.59;nan;96700.19;4985250;28;20619;-70
2023/04/16 01:02:09;;;;;;;6.63;6.13;;;;;;;5.59;nan;96702.81;5008007;28;20288;-71
2023/04/16 01:04:37;;;;;;;6.30;5.83;;;;;;;5.59;nan;96700.19;5009801;28;20254;-70
2023/04/16 01:07:05;;;;;;;6.00;5.50;;;;;;;5.67;nan;96700.19;5033535;28;20291;-71
2023/04/16 01:09:33;;;;;;;6.57;6.07;;;;;;;5.73;nan;96698.72;5030161;28;20652;-70
2023/04/16 01:12:02;;;;;;;6.70;6.03;;;;;;;5.82;nan;96699.50;5030615;28;20211;-70
2023/04/16 01:14:34;;;;;;;5.63;5.23;;;;;;;5.80;nan;96700.50;4983751;28;21634;-73
2023/04/16 01:17:02;;;;;;;5.67;5.27;;;;;;;5.80;nan;96697.06;5016605;28;20206;-72
2023/04/16 01:19:30;;;;;;;5.53;5.13;;;;;;;5.82;nan;96699.50;5012332;28;20650;-72
2023/04/16 01:21:59;;;;;;;6.30;5.90;;;;;;;5.82;nan;96702.97;5031741;28;20207;-70
2023/04/16 01:24:27;;;;;;;6.27;5.87;;;;;;;5.82;nan;96704.75;5030102;28;20288;-70
2023/04/16 01:26:55;;;;;;;5.67;5.30;;;;;;;5.72;nan;96708.38;5030700;28;20818;-70
2023/04/16 01:29:23;;;;;;;5.83;5.43;;;;;;;5.77;nan;96711.34;5030997;28;20207;-70
2023/04/16 01:31:50;;;;;;;5.87;5.47;;;;;;;5.77;nan;96721.84;4965758;28;20308;-72
2023/04/16 01:34:18;;;;;;;6.17;5.77;;;;;;;5.70;nan;96720.88;5031183;28;20871;-71
2023/04/16 01:36:46;;;;;;;5.67;5.30;;;;;;;5.70;nan;96718.25;5001357;28;20219;-71
2023/04/16 01:39:16;;;;;;;6.00;5.57;;;;;;;5.62;nan;96726.94;5038420;28;20213;-71
2023/04/16 01:41:43;;;;;;;5.90;5.50;;;;;;;5.71;nan;96722.53;5046268;28;20432;-72
2023/04/16 01:44:11;;;;;;;6.60;6.10;;;;;;;5.78;nan;96722.69;5039650;28;20774;-72
2023/04/16 01:46:39;;;;;;;6.70;6.30;;;;;;;5.80;nan;96715.47;4986433;28;21489;-72
2023/04/16 01:49:07;;;;;;;6.47;5.97;;;;;;;5.85;nan;96717.56;5033980;28;20628;-72
2023/04/16 01:51:35;;;;;;;6.63;6.13;;;;;;;5.83;nan;96720.38;5007038;28;20710;-72
2023/04/16 01:54:03;;;;;;;6.37;5.93;;;;;;;5.82;nan;96718.75;5031724;28;20551;-72
2023/04/16 01:56:32;;;;;;;6.63;6.13;;;;;;;5.81;nan;96719.72;5027299;28;20435;-71
2023/04/16 01:58:59;;;;;;;6.17;5.77;;;;;;;5.80;nan;96725.97;5028585;28;20199;-71
2023/04/16 02:01:27;;;;;;;6.43;6.03;;;;;;;5.81;nan;96722.34;5028471;28;20750;-72
2023/04/16 02:03:55;;;;;;;6.10;5.57;;;;;;;5.79;nan;96713.81;4984766;28;20225;-71
2023/04/16 02:06:23;;;;;;;6.27;5.67;;;;;;;5.83;nan;96724.81;5012320;28;20217;-71
2023/04/16 02:08:51;;;;;;;6.53;6.07;;;;;;;5.81;nan;96719.72;5033717;28;20203;-72
2023/04/16 02:11:19;;;;;;;5.93;5.53;;;;;;;5.77;nan;96721.84;5031490;28;20206;-72
2023/04/16 02:13:48;;;;;;;5.70;5.30;;;;;;;5.80;nan;96734.66;5034161;28;20238;-72
2023/04/16 02:16:16;;;;;;;6.03;5.53;;;;;;;5.75;nan;96736.16;5028605;28;20211;-72
2023/04/16 02:18:44;;;;;;;6.03;5.53;;;;;;;5.64;nan;96734.69;4988144;28;20845;-71
2023/04/16 02:21:12;;;;;;;6.23;5.83;;;;;;;5.67;nan;96734.34;5031238;28;20210;-71
2023/04/16 02:23:40;;;;;;;5.90;5.40;;;;;;;5.69;nan;96732.38;5006405;28;20549;-71
2023/04/16 02:26:08;;;;;;;6.63;6.23;;;;;;;5.75;nan;96742.22;5032183;28;20221;-70
2023/04/16 02:28:36;;;;;;;6.47;5.97;;;;;;;5.76;nan;96729.94;5031451;28;20356;-70
2023/04/16 02:31:05;;;;;;;6.23;5.83;;;;;;;5.72;nan;96733.88;5032953;28;20214;-71
2023/04/16 02:33:34;;;;;;;7.63;6.87;;;;;;;5.65;nan;96745.00;4986525;28;20723;-71
2023/04/16 02:36:02;;;;;;;6.93;6.43;;;;;;;5.65;nan;96750.28;5034263;28;20616;-70
2023/04/16 02:38:30;;;;;;;6.60;6.10;;;;;;;5.61;nan;96743.69;5002237;28;20778;-70
2023/04/16 02:40:58;;;;;;;6.40;6.00;;;;;;;5.57;nan;96747.66;5026448;28;20677;-70
2023/04/16 02:43:26;;;;;;;7.27;6.67;;;;;;;5.56;nan;96750.44;5025606;28;20234;-70
2023/04/16 02:45:54;;;;;;;7.30;6.53;;;;;;;5.52;nan;96755.19;5030817;28;20215;-69
2023/04/16 02:48:24;;;;;;;7.10;6.57;;;;;;;5.58;nan;96751.91;5002919;28;20671;-71
2023/04/16 02:50:52;;;;;;;7.00;6.50;;;;;;;5.70;nan;96756.88;5026820;28;20348;-71
2023/04/16 02:53:21;;;;;;;7.00;6.50;;;;;;;5.76;nan;96767.53;5013807;28;20235;-71
2023/04/16 02:55:51;;;;;;;7.03;6.53;;;;;;;5.82;nan;96765.22;5030686;28;20214;-69
2023/04/16 02:58:19;;;;;;;7.10;6.50;;;;;;;5.82;nan;96762.59;5034850;28;20202;-70
2023/04/16 03:00:47;;;;;;;7.87;7.27;;;;;;;5.83;nan;96769.50;5033384;28;20221;-70
2023/04/16 03:03:15;;;;;;;7.30;6.70;;;;;;;5.76;nan;96764.91;5028881;28;20220;-71
2023/04/16 03:05:45;;;;;;;7.10;6.57;;;;;;;5.79;nan;96761.94;4995040;28;21121;-71
2023/04/16 03:08:13;;;;;;;6.93;6.43;;;;;;;5.83;nan;96761.63;5029870;28;20367;-70
2023/04/16 03:10:41;;;;;;;6.93;6.53;;;;;;;5.87;nan;96769.03;5020210;28;20408;-70
2023/04/16 03:13:08;;;;;;;6.70;6.20;;;;;;;5.90;nan;96768.69;5033847;28;20839;-71
2023/04/16 03:15:36;;;;;;;7.07;6.47;;;;;;;5.82;nan;96768.69;5031582;28;20736;-71
2023/04/16 03:18:04;;;;;;;6.80;6.40;;;;;;;5.79;nan;96767.19;5040177;28;20211;-70
2023/04/16 03:20:31;;;;;;;7.03;6.53;;;;;;;5.80;nan;96774.09;4982038;28;20672;-71
2023/04/16 03:23:00;;;;;;;7.27;6.67;;;;;;;5.82;nan;96773.97;5034979;28;20226;-71
2023/04/16 03:25:28;;;;;;;7.20;6.80;;;;;;;5.88;nan;96769.84;5010408;28;20210;-70
2023/04/16 03:27:56;;;;;;;7.30;6.70;;;;;;;5.88;nan;96769.84;5035333;28;20202;-71
2023/04/16 03:30:24;;;;;;;7.27;6.53;;;;;;;5.85;nan;96772.78;5034042;28;20651;-72
2023/04/16 03:32:52;;;;;;;6.60;6.10;;;;;;;5.87;nan;96776.91;5032863;28;20235;-70
2023/04/16 03:35:23;;;;;;;7.07;6.57;;;;;;;5.82;nan;96773.13;5000240;28;20850;-70
2023/04/16 03:37:53;;;;;;;7.67;7.00;;;;;;;5.88;nan;96780.38;5034462;28;20203;-70
2023/04/16 03:40:22;;;;;;;7.43;6.93;;;;;;;5.86;nan;96772.63;5018247;28;20511;-71
2023/04/16 03:42:50;;;;;;;7.00;6.47;;;;;;;5.89;nan;96779.38;5035756;28;20235;-71
2023/04/16 03:45:18;;;;;;;6.40;6.00;;;;;;;5.88;nan;96780.38;5030987;28;20585;-71
2023/04/16 03:47:47;;;;;;;7.17;6.67;;;;;;;5.90;nan;96783.66;5033482;28;20218;-71
2023/04/16 03:50:15;;;;;;;7.07;6.47;;;;;;;5.91;nan;96775.59;5032798;28;20222;-70
2023/04/16 03:52:43;;;;;;;7.43;6.83;;;;;;;5.92;nan;96781.69;4986329;28;20446;-70
2023/04/16 03:55:11;;;;;;;6.67;6.17;;;;;;;5.92;nan;96785.13;5033885;28;20223;-72
2023/04/16 03:57:40;;;;;;;5.83;5.40;;;;;;;5.89;nan;96787.28;5007764;28;20448;-70
2023/04/16 04:00:08;;;;;;;6.60;6.17;;;;;;;5.79;nan;96782.19;5033256;28;20780;-71
2023/04/16 04:02:36;;;;;;;6.13;5.73;;;;;;;5.85;nan;96784.13;5033032;28;20441;-70
2023/04/16 04:05:04;;;;;;;6.70;6.27;;;;;;;5.89;nan;96798.59;5033266;28;20211;-72
2023/04/16 04:07:32;;;;;;;6.37;5.97;;;;;;;5.94;nan;96800.75;4984279;28;20420;-71
2023/04/16 04:10:00;;;;;;;6.63;6.13;;;;;;;5.92;nan;96800.09;5036899;28;20217;-70
2023/04/16 04:12:28;;;;;;;6.70;6.20;;;;;;;5.91;nan;96798.44;5006405;28;20243;-70
2023/04/16 04:14:57;;;;;;;7.37;6.77;;;;;;;5.82;nan;96788.91;5034670;28;20231;-71
2023/04/16 04:17:24;;;;;;;6.67;6.17;;;;;;;5.87;nan;96802.38;5031355;28;20264;-72
2023/04/16 04:19:52;;;;;;;7.00;6.40;;;;;;;5.88;nan;96804.03;5035869;28;20226;-69
2023/04/16 04:22:28;;;;;;;6.73;6.33;;;;;;;5.82;nan;96808.13;4982899;28;20678;-71
2023/04/16 04:24:55;;;;;;;6.67;6.17;;;;;;;5.86;nan;96809.44;5036578;28;20261;-71
2023/04/16 04:27:23;;;;;;;6.40;5.90;;;;;;;5.85;nan;96804.34;5009737;28;20219;-70
2023/04/16 04:29:51;;;;;;;6.03;5.63;;;;;;;5.83;nan;96809.78;5035217;28;20202;-71
2023/04/16 04:32:20;;;;;;;6.27;5.77;;;;;;;5.87;nan;96810.25;5029546;28;20227;-71
2023/04/16 04:34:48;;;;;;;6.33;5.83;;;;;;;5.89;nan;96814.38;5035714;28;21036;-71
2023/04/16 04:37:21;;;;;;;6.80;6.30;;;;;;;5.89;nan;96818.84;5014431;28;20199;-72
2023/04/16 04:39:49;;;;;;;6.80;6.20;;;;;;;5.86;nan;96814.72;5012980;28;20215;-73
2023/04/16 04:42:18;;;;;;;6.30;5.90;;;;;;;5.98;nan;96823.09;5033779;28;20240;-72
2023/04/16 04:44:46;;;;;;;6.53;6.03;;;;;;;6.04;nan;96821.63;5008595;28;20218;-73
2023/04/16 04:47:14;;;;;;;6.40;6.00;;;;;;;6.07;nan;96829.22;5033859;28;20199;-72
2023/04/16 04:49:43;;;;;;;5.93;5.53;;;;;;;6.11;nan;96833.16;5037553;28;20214;-72
2023/04/16 04:52:11;;;;;;;6.33;5.90;;;;;;;6.16;nan;96830.03;5034351;28;20531;-72
2023/04/16 04:54:40;;;;;;;6.03;5.63;;;;;;;6.20;nan;96826.91;4993750;28;20738;-72
2023/04/16 04:57:08;;;;;;;6.23;5.83;;;;;;;6.28;nan;96841.88;4994374;28;20215;-73
2023/04/16 04:59:35;;;;;;;6.00;5.60;;;;;;;6.35;nan;96842.88;5017735;28;20508;-70
2023/04/16 05:02:03;;;;;;;6.17;5.67;;;;;;;6.39;nan;96832.00;5034071;28;20211;-71
2023/04/16 05:04:31;;;;;;;6.47;5.97;;;;;;;6.33;nan;96826.41;5035430;28;20453;-71
2023/04/16 05:07:00;;;;;;;6.07;5.67;;;;;;;6.42;nan;96845.63;5028155;28;20222;-71
2023/04/16 05:09:28;;;;;;;5.80;5.40;;;;;;;6.48;nan;96838.91;4989905;28;21511;-71
2023/04/16 05:11:56;;;;;;;5.57;5.17;;;;;;;6.47;nan;96830.19;5038623;28;20240;-70
2023/04/16 05:14:24;;;;;;;5.40;5.10;;;;;;;6.54;nan;96837.41;5011732;28;20564;-70
2023/04/16 05:16:52;;;;;;;6.20;5.70;;;;;;;6.54;nan;96830.31;5011270;28;20261;-70
2023/04/16 05:19:20;;;;;;;5.60;5.20;;;;;;;6.55;nan;96833.78;5002209;28;20223;-66
2023/04/16 05:21:48;;;;;;;5.60;5.27;;;;;;;6.55;nan;96828.53;5033553;28;20264;-69
2023/04/16 05:24:17;;;;;;;5.50;5.10;;;;;;;6.66;nan;96836.06;5008049;28;20489;-69
2023/04/16 05:26:45;;;;;;;6.03;5.63;;;;;;;6.70;nan;96841.84;4979324;28;20226;-68
2023/04/16 05:29:12;;;;;;;6.93;6.43;;;;;;;6.58;nan;96838.72;5029197;28;20470;-70
2023/04/16 05:31:40;;;;;;;5.90;5.50;;;;;;;6.56;nan;96838.06;5008830;28;20867;-72
2023/04/16 05:34:08;;;;;;;6.23;5.73;;;;;;;6.69;nan;96848.91;5027349;28;20692;-72
2023/04/16 05:36:36;;;;;;;5.37;5.07;;;;;;;6.79;nan;96857.44;5005743;28;20241;-69
2023/04/16 05:39:03;;;;;;;5.80;5.40;;;;;;;6.73;nan;96857.28;5030641;28;20469;-68
2023/04/16 05:41:32;;;;;;;5.90;5.40;;;;;;;6.84;nan;96864.03;4956586;28;20210;-68
2023/04/16 05:44:00;;;;;;;5.63;5.27;;;;;;;6.90;nan;96863.34;5024623;28;20538;-71
2023/04/16 05:46:28;;;;;;;5.40;5.00;;;;;;;7.05;nan;96868.75;5010388;28;20290;-71
2023/04/16 05:48:56;;;;;;;4.67;4.37;;;;;;;7.14;nan;96870.34;5031121;28;20213;-70
2023/04/16 05:51:24;;;;;;;5.37;5.00;;;;;;;7.16;nan;96865.75;5029313;28;20211;-69
2023/04/16 05:53:52;;;;;;;5.07;4.77;;;;;;;7.20;nan;96867.03;5028191;28;20753;-68
2023/04/16 05:56:20;;;;;;;4.70;4.40;;;;;;;7.21;nan;96875.78;5007913;28;20215;-69
2023/04/16 05:58:49;;;;;;;4.67;4.37;;;;;;;7.15;nan;96872.00;4976574;28;20248;-71
2023/04/16 06:01:18;;;;;;;5.07;4.77;;;;;;;7.26;nan;96867.34;5030556;28;20233;-69
2023/04/16 06:03:45;;;;;;;4.90;4.50;;;;;;;7.20;nan;96866.22;5009885;28;20231;-71
2023/04/16 06:06:13;;;;;;;4.10;3.90;;;;;;;7.20;nan;96868.88;5029833;28;20218;-71
2023/04/16 06:08:41;;;;;;;4.57;4.27;;;;;;;7.19;nan;96865.41;5028928;28;20207;-71
2023/04/16 06:11:09;;;;;;;4.80;4.50;;;;;;;7.29;nan;96872.28;5004106;28;21307;-69
2023/04/16 06:13:36;;;;;;;4.67;4.37;;;;;;;7.25;nan;96866.53;4952735;28;20398;-68
2023/04/16 06:16:06;;;;;;;4.97;4.60;;;;;;;7.37;nan;96870.44;5034007;28;21136;-71
2023/04/16 06:18:34;;;;;;;5.20;4.80;;;;;;;7.61;nan;96870.47;5011073;28;20292;-71
2023/04/16 06:21:03;;;;;;;4.37;4.07;;;;;;;7.64;nan;96870.13;5046566;28;20206;-70
2023/04/16 06:23:30;;;;;;;4.43;4.13;;;;;;;7.60;nan;96867.03;5034864;28;20402;-69
2023/04/16 06:25:58;;;;;;;4.87;4.57;;;;;;;7.59;nan;96875.13;5036049;28;20215;-68
2023/04/16 06:28:26;;;;;;;4.17;3.97;;;;;;;7.58;nan;96863.75;4964625;28;20708;-70
2023/04/16 06:30:53;;;;;;;4.00;3.80;;;;;;;7.36;nan;96873.22;5030466;28;20210;-71
2023/04/16 06:33:23;;;;;;;4.67;4.37;;;;;;;7.26;nan;96868.19;5018400;28;20676;-72
2023/04/16 06:35:50;;;;;;;4.17;3.97;;;;;;;7.22;nan;96861.59;4997107;28;20226;-69
2023/04/16 06:38:18;;;;;;;4.93;4.63;;;;;;;7.22;nan;96866.88;5027850;28;20238;-71
2023/04/16 06:40:46;;;;;;;4.87;4.57;;;;;;;7.43;nan;96868.94;5028865;28;20206;-70
2023/04/16 06:43:14;;;;;;;4.20;3.97;;;;;;;7.46;nan;96863.31;4995472;28;20584;-73
2023/04/16 06:45:43;;;;;;;4.90;4.60;;;;;;;7.56;nan;96875.47;5005670;28;20207;-70
2023/04/16 06:48:11;;;;;;;5.53;5.13;;;;;;;7.72;nan;96877.19;4980924;28;20211;-72
2023/04/16 06:50:41;;;;;;;5.20;4.90;;;;;;;7.60;nan;96872.31;5008842;28;20220;-68
2023/04/16 06:53:09;;;;;;;6.13;5.63;;;;;;;7.39;nan;96884.25;5006942;28;20227;-72
2023/04/16 06:55:37;;;;;;;5.00;4.70;;;;;;;7.38;nan;96887.88;5019771;28;20231;-69
2023/04/16 06:58:05;;;;;;;5.63;5.23;;;;;;;7.24;nan;96881.50;4996886;28;20691;-73
2023/04/16 07:00:33;;;;;;;5.70;5.30;;;;;;;7.55;nan;96884.38;4975468;28;20223;-70
2023/04/16 07:03:02;;;;;;;6.00;5.57;;;;;;;7.65;nan;96887.59;5003253;28;20692;-71
2023/04/16 07:05:30;;;;;;;6.30;5.90;;;;;;;7.88;nan;96886.84;5004733;28;20526;-71
2023/04/16 07:07:59;;;;;;;6.83;6.33;;;;;;;7.98;nan;96887.41;5031859;28;20436;-72
2023/04/16 07:10:27;;;;;;;6.27;5.83;;;;;;;8.28;nan;96878.78;5013256;28;20242;-70
2023/04/16 07:12:55;;;;;;;6.13;5.72;;;;;;;8.40;nan;96875.56;5032765;28;20481;-69
2023/04/16 07:15:22;;;;;;;5.80;5.40;;;;;;;8.52;nan;96878.63;4950381;28;20615;-70
2023/04/16 07:17:50;;;;;;;6.43;5.93;;;;;;;8.27;nan;96891.19;5003961;28;20227;-70
2023/04/16 07:20:18;;;;;;;5.63;5.23;;;;;;;8.24;nan;96888.91;5004365;28;20850;-71
2023/04/16 07:22:46;;;;;;;5.90;5.50;;;;;;;8.43;nan;96879.69;5029119;28;20230;-70
2023/04/16 07:25:15;;;;;;;6.27;5.87;;;;;;;8.61;nan;96882.03;4994401;28;20233;-70
2023/04/16 07:27:43;;;;;;;5.30;4.90;;;;;;;8.58;nan;96884.19;5032797;28;20230;-71
2023/04/16 07:30:11;;;;;;;5.90;5.50;;;;;;;8.81;nan;96887.63;4978540;28;20910;-71
2023/04/16 07:32:39;;;;;;;7.00;6.50;;;;;;;8.97;nan;96886.66;5003718;28;20234;-70
2023/04/16 07:35:07;;;;;;;5.47;5.07;;;;;;;9.09;nan;96889.66;5013488;28;20212;-71
2023/04/16 07:37:35;;;;;;;6.10;5.60;;;;;;;9.34;nan;96888.56;5025392;28;20288;-71
2023/04/16 07:40:04;;;;;;;4.53;4.23;;;;;;;9.80;nan;96890.13;5032081;28;20693;-72
2023/04/16 07:42:33;;;;;;;4.50;4.20;;;;;;;9.96;nan;96889.91;5002820;28;20266;-71
2023/04/16 07:45:04;;;;;;;4.70;4.40;;;;;;;10.14;nan;96886.00;5013176;28;21019;-73
2023/04/16 07:47:34;;;;;;;4.80;4.50;;;;;;;10.34;nan;96888.84;4991357;28;20223;-72
2023/04/16 07:50:03;;;;;;;7.67;7.07;;;;;;;9.54;nan;96894.91;5003217;28;20207;-73
2023/04/16 07:52:31;;;;;;;9.70;8.90;;;;;;;9.49;nan;96892.00;5020506;28;20440;-71
2023/04/16 07:54:58;;;;;;;7.10;6.50;;;;;;;9.13;nan;96895.38;5012699;28;20974;-72
2023/04/16 07:57:26;;;;;;;8.33;7.63;;;;;;;9.12;nan;96893.75;5011737;28;21128;-70
2023/04/16 07:59:55;;;;;;;8.87;8.17;;;;;;;9.25;nan;96896.56;5038192;28;21088;-72
2023/04/16 08:02:23;;;;;;;8.17;7.53;;;;;;;8.52;nan;96902.41;4981089;28;20508;-72
2023/04/16 08:04:50;;;;;;;7.00;6.50;;;;;;;9.02;nan;96894.00;5014233;28;20319;-71
2023/04/16 08:07:18;;;;;;;7.13;6.55;;;;;;;8.81;nan;96897.34;5007144;28;20985;-71
2023/04/16 08:09:50;;;;;;;7.23;6.73;;;;;;;9.08;nan;96900.41;5015243;28;20211;-61
2023/04/16 08:12:18;;;;;;;7.77;7.13;;;;;;;9.18;nan;96898.31;5007380;28;20858;-63
2023/04/16 08:14:46;;;;;;;8.30;7.67;;;;;;;9.37;nan;96909.34;5031025;28;20294;-61
2023/04/16 08:17:16;;;;;;;7.23;6.73;;;;;;;9.18;nan;96905.44;4984854;28;21204;-73
2023/04/16 08:19:44;;;;;;;6.67;6.07;;;;;;;9.14;nan;96909.44;5012108;28;20217;-71
2023/04/16 08:22:12;;;;;;;6.70;6.17;;;;;;;9.35;nan;96914.00;5006077;28;20257;-70
2023/04/16 08:24:40;;;;;;;6.40;5.90;;;;;;;9.22;nan;96918.09;5038818;28;20214;-73
2023/04/16 08:27:09;;;;;;;6.47;5.97;;;;;;;9.43;nan;96921.00;5011825;28;20209;-71
2023/04/16 08:29:45;;;;;;;6.40;5.80;;;;;;;9.45;nan;96921.63;5018633;28;20206;-70
2023/04/16 08:32:13;;;;;;;7.60;7.00;;;;;;;9.49;nan;96918.44;5029074;28;20231;-68
2023/04/16 08:34:42;;;;;;;5.40;5.00;;;;;;;9.41;nan;96934.41;4983251;28;20215;-72
2023/04/16 08:37:10;;;;;;;5.23;4.83;;;;;;;9.34;nan;96930.88;5005091;28;20521;-72
2023/04/16 08:39:37;;;;;;;5.47;5.07;;;;;;;9.34;nan;96938.81;5006582;28;20505;-70
2023/04/16 08:42:06;;;;;;;5.03;4.63;;;;;;;9.37;nan;96935.78;5007654;28;20200;-72
2023/04/16 08:44:35;;;;;;;4.87;4.27;;;;;;;9.38;nan;96940.06;5012573;28;20690;-71
2023/04/16 08:47:03;;;;;;;4.47;4.27;;;;;;;9.22;nan;96939.22;5030329;28;20784;-72
2023/04/16 08:49:32;;;;;;;4.70;4.40;;;;;;;9.29;nan;96949.09;4986864;28;20230;-71
2023/04/16 08:52:06;;;;;;;4.23;4.00;;;;;;;9.23;nan;96950.63;5008132;28;20712;-72
2023/04/16 08:54:37;;;;;;;4.63;4.43;;;;;;;9.27;nan;96952.72;5028532;28;20277;-71
2023/04/16 08:57:07;;;;;;;4.00;3.80;;;;;;;9.31;nan;96944.47;5011527;28;20233;-72
2023/04/16 08:59:35;;;;;;;4.17;3.97;;;;;;;9.38;nan;96950.66;5008612;28;20253;-71
2023/04/16 09:02:02;;;;;;;3.80;3.60;;;;;;;9.44;nan;96949.09;5033199;28;20256;-71
2023/04/16 09:04:31;;;;;;;3.47;3.27;;;;;;;9.48;nan;96961.78;4974626;28;21244;-69
2023/04/16 09:07:02;;;;;;;4.17;3.87;;;;;;;9.47;nan;96946.06;5027003;28;20210;-74
2023/04/16 09:09:30;;;;;;;4.80;4.50;;;;;;;9.67;nan;96962.25;5010893;28;20207;-74
2023/04/16 09:12:01;;;;;;;4.93;4.53;;;;;;;9.51;nan;96958.75;5033230;28;20210;-74
2023/04/16 09:14:29;;;;;;;5.27;4.97;;;;;;;9.49;nan;96973.19;5021090;28;20545;-73
2023/04/16 09:17:00;;;;;;;4.80;4.40;;;;;;;9.53;nan;96975.25;4984286;28;20713;-72
2023/04/16 09:19:27;;;;;;;5.30;4.90;;;;;;;9.51;nan;96968.53;4987963;28;20575;-72
2023/04/16 09:21:56;;;;;;;4.83;4.53;;;;;;;9.52;nan;96983.41;5030417;28;20234;-72
2023/04/16 09:24:25;;;;;;;4.83;4.43;;;;;;;9.47;nan;96970.72;5003926;28;20991;-72
2023/04/16 09:26:54;;;;;;;4.60;4.30;;;;;;;9.50;nan;96977.47;5024219;28;20199;-70
2023/04/16 09:29:36;;;;;;;3.93;3.73;;;;;;;9.43;nan;96987.94;5006460;28;20219;-70
2023/04/16 09:32:05;;;;;;;4.70;4.30;;;;;;;9.47;nan;96981.28;4980023;28;20734;-68
2023/04/16 09:34:33;;;;;;;4.90;4.50;;;;;;;9.56;nan;96989.97;4979457;28;20219;-69
2023/04/16 09:37:22;;;;;;;4.53;4.23;;;;;;;9.62;nan;96985.75;5025516;28;20593;-69
2023/04/16 09:39:56;;;;;;;5.13;4.73;;;;;;;9.93;nan;96990.84;4987650;28;20214;-70
2023/04/16 09:42:26;;;;;;;5.13;4.73;;;;;;;10.20;nan;96990.34;5028413;28;20322;-70
2023/04/16 09:44:54;;;;;;;4.47;4.17;;;;;;;10.18;nan;96987.06;4981676;28;20442;-71
2023/04/16 09:47:26;;;;;;;5.40;5.00;;;;;;;10.29;nan;96983.94;5009258;28;20210;-70
2023/04/16 09:49:58;;;;;;;5.60;5.20;;;;;;;10.20;nan;96982.41;4982236;28;20315;-70
2023/04/16 09:52:26;;;;;;;5.10;4.70;;;;;;;10.36;nan;96982.16;5031602;28;20239;-74
2023/04/16 09:54:55;;;;;;;4.37;4.13;;;;;;;10.69;nan;96987.00;5005300;28;20869;-61
2023/04/16 09:57:24;;;;;;;4.40;4.10;;;;;;;10.95;nan;96987.44;5030628;28;20619;-61
2023/04/16 09:59:53;;;;;;;4.83;4.53;;;;;;;10.89;nan;96982.91;5007996;28;20210;-72
2023/04/16 10:02:22;;;;;;;4.80;4.47;;;;;;;10.78;nan;96995.66;5029491;28;20242;-72
2023/04/16 10:04:51;;;;;;;4.80;4.50;;;;;;;10.24;nan;96986.31;4949061;28;20762;-74
2023/04/16 10:07:19;;;;;;;3.90;3.70;;;;;;;10.58;nan;96987.53;5027840;28;20211;-75
2023/04/16 10:09:48;;;;;;;4.43;3.73;;;;;;;10.88;nan;96994.50;5029671;28;20203;-71
2023/04/16 10:12:17;;;;;;;2.83;2.70;;;;;;;11.22;nan;96992.94;5009176;28;20216;-73
2023/04/16 10:14:44;;;;;;;3.10;2.90;;;;;;;11.35;nan;96993.03;5031483;28;20229;-74
2023/04/16 10:17:14;;;;;;;3.23;3.03;;;;;;;11.82;nan;96980.06;5032584;28;20921;-73
2023/04/16 10:19:47;;;;;;;4.50;4.20;;;;;;;12.08;nan;96983.03;5003518;28;20397;-74
2023/04/16 10:22:16;;;;;;;4.20;4.00;;;;;;;11.72;nan;96977.75;5033273;28;20674;-74
2023/04/16 10:24:44;;;;;;;4.33;4.13;;;;;;;12.15;nan;96995.34;5028818;28;20210;-75
2023/04/16 10:27:11;;;;;;;4.43;4.13;;;;;;;12.29;nan;96990.06;5011617;28;20199;-74
2023/04/16 10:29:40;;;;;;;4.57;4.27;;;;;;;11.79;nan;96988.41;5026929;28;20203;-74
2023/04/16 10:32:08;;;;;;;4.00;3.80;;;;;;;11.22;nan;96995.59;5030731;28;20210;-73
2023/04/16 10:34:42;;;;;;;4.07;3.87;;;;;;;11.57;nan;96996.47;5015080;28;20211;-75
2023/04/16 10:37:11;;;;;;;4.70;4.43;;;;;;;11.74;nan;96996.16;5019181;28;20214;-72
2023/04/16 10:39:39;;;;;;;4.03;3.83;;;;;;;12.05;nan;96996.72;5026799;28;20265;-73
2023/04/16 10:42:08;;;;;;;4.00;3.80;;;;;;;11.81;nan;96994.34;5011935;28;20607;-72
2023/04/16 10:44:36;;;;;;;4.30;4.00;;;;;;;12.36;nan;96998.91;5029253;28;20203;-73
2023/04/16 10:47:10;;;;;;;3.97;3.73;;;;;;;12.44;nan;97001.38;5031469;28;20230;-72
2023/04/16 10:49:38;;;;;;;4.07;3.83;;;;;;;12.10;nan;97007.56;5030702;28;20309;-73
2023/04/16 10:52:10;;;;;;;4.30;4.00;;;;;;;11.79;nan;97004.34;4980462;28;20408;-72
2023/04/16 10:54:38;;;;;;;4.00;3.80;;;;;;;11.54;nan;97002.16;5028737;28;20219;-73
2023/04/16 10:57:07;;;;;;;4.10;3.90;;;;;;;11.41;nan;97012.69;5004395;28;21243;-70
2023/04/16 10:59:36;;;;;;;3.70;3.50;;;;;;;11.53;nan;97008.47;5034157;28;20223;-72
2023/04/16 11:02:09;;;;;;;3.47;3.27;;;;;;;11.82;nan;97005.78;5030648;28;20214;-72
2023/04/16 11:04:38;;;;;;;3.20;3.10;;;;;;;12.04;nan;97017.16;5030911;28;20675;-72
2023/04/16 11:07:09;;;;;;;3.93;3.73;;;;;;;12.08;nan;97017.56;4985440;28;20723;-71
2023/04/16 11:09:58;;;;;;;3.00;2.90;;;;;;;11.82;nan;97016.41;5030218;28;20199;-72
2023/04/16 11:12:27;;;;;;;3.53;3.33;;;;;;;11.73;nan;97011.25;5030685;28;20304;-71
2023/04/16 11:14:59;;;;;;;3.37;3.20;;;;;;;11.84;nan;97014.38;5011036;28;20460;-73
2023/04/16 11:17:31;;;;;;;3.03;2.93;;;;;;;11.72;nan;97011.44;5033748;28;20306;-72
2023/04/16 11:19:59;;;;;;;3.70;3.50;;;;;;;11.34;nan;97017.13;5032515;28;20489;-71
2023/04/16 11:22:27;;;;;;;3.60;3.40;;;;;;;11.24;nan;97012.16;4996799;28;20226;-73
2023/04/16 11:24:56;;;;;;;3.47;3.27;;;;;;;11.64;nan;97008.97;5038519;28;20308;-72
2023/04/16 11:27:24;;;;;;;3.30;3.10;;;;;;;11.69;nan;97019.81;5045542;28;20362;-72
2023/04/16 11:29:59;;;;;;;3.30;3.10;;;;;;;11.75;nan;97012.91;5017791;28;20206;-72
2023/04/16 11:32:29;;;;;;;3.77;3.57;;;;;;;11.92;nan;97013.38;5036467;28;20233;-71
2023/04/16 11:34:56;;;;;;;3.70;3.50;;;;;;;12.15;nan;97018.44;5035985;28;20356;-71
2023/04/16 11:37:42;;;;;;;3.43;3.10;;;;;;;12.27;nan;97021.31;5039329;28;20207;-72
2023/04/16 11:40:11;;;;;;;3.10;3.00;;;;;;;12.50;nan;97020.19;5026924;28;20227;-72
2023/04/16 11:42:40;;;;;;;3.83;3.63;;;;;;;12.13;nan;97017.81;5038907;28;20480;-72
2023/04/16 11:45:09;;;;;;;3.60;3.40;;;;;;;12.44;nan;97006.69;5017026;28;21210;-72
2023/04/16 11:47:44;;;;;;;3.87;3.57;;;;;;;11.91;nan;97001.94;5038567;28;20207;-73
2023/04/16 11:50:19;;;;;;;3.67;3.47;;;;;;;11.89;nan;97014.59;5039190;28;20198;-72
2023/04/16 11:52:53;;;;;;;3.43;3.23;;;;;;;12.12;nan;97022.31;4998139;28;20231;-72
2023/04/16 11:55:22;;;;;;;4.20;3.90;;;;;;;12.46;nan;97030.38;5011335;28;20203;-72
2023/04/16 11:57:50;;;;;;;5.23;4.80;;;;;;;12.99;nan;97023.56;5036029;28;20211;-71
2023/04/16 12:00:18;;;;;;;4.37;4.07;;;;;;;12.94;nan;97024.16;4996630;28;20409;-71
2023/04/16 12:02:53;;;;;;;4.00;3.80;;;;;;;12.94;nan;97026.00;5031470;28;20613;-71